Time;durP1;ratioP1;P1;durP2;ratioP2;P2;SDS_P1;SDS_P2;PMS_P1;PMS_P2;Temp;Humidity;BMP_temperature;BMP_pressure;BME280_temperature;BME280_humidity;BME280_pressure;Samples;Min_cycle;Max_cycle;Signal;HPM_P1;HPM_P2
2022/06/29 00:00:06;;;;;;;;;;;15.70;99.90;;;;;;5039452;28;20011;-81
2022/06/29 00:02:32;;;;;;;;;;;15.70;99.90;;;;;;5054788;28;19928;-80
2022/06/29 00:04:58;;;;;;;;;;;15.60;99.90;;;;;;5040435;28;20309;-79
2022/06/29 00:07:23;;;;;;;;;;;15.60;99.90;;;;;;5036303;28;20399;-79
2022/06/29 00:09:49;;;;;;;;;;;15.60;99.90;;;;;;5048617;28;19927;-78
2022/06/29 00:12:14;;;;;;;;;;;15.60;99.90;;;;;;5052979;28;20404;-79
2022/06/29 00:14:43;;;;;;;;;;;15.60;99.90;;;;;;5071527;28;20293;-78
2022/06/29 00:17:09;;;;;;;;;;;15.60;99.90;;;;;;5089349;28;19920;-78
2022/06/29 00:19:35;;;;;;;;;;;15.70;99.90;;;;;;5047073;28;19974;-78
2022/06/29 00:22:00;;;;;;;;;;;15.60;99.90;;;;;;5080558;28;19971;-79
2022/06/29 00:24:26;;;;;;;;;;;15.50;99.90;;;;;;5021563;28;19921;-79
2022/06/29 00:26:51;;;;;;;;;;;15.50;99.90;;;;;;5035640;28;19975;-78
2022/06/29 00:29:17;;;;;;;;;;;15.50;99.90;;;;;;5040755;28;20011;-78
2022/06/29 00:31:42;;;;;;;;;;;15.50;99.90;;;;;;5087988;28;20354;-78
2022/06/29 00:34:08;;;;;;;;;;;15.50;99.90;;;;;;5077086;28;19928;-81
2022/06/29 00:36:33;;;;;;;;;;;15.40;99.90;;;;;;5035532;28;19979;-79
2022/06/29 00:38:59;;;;;;;;;;;15.50;99.90;;;;;;5035934;28;19920;-78
2022/06/29 00:41:24;;;;;;;;;;;15.40;99.90;;;;;;5068754;28;19929;-78
2022/06/29 00:43:50;;;;;;;;;;;15.40;99.90;;;;;;5060594;28;19920;-80
2022/06/29 00:46:15;;;;;;;;;;;15.30;99.90;;;;;;5068926;28;19936;-80
2022/06/29 00:48:41;;;;;;;;;;;15.30;99.90;;;;;;5052123;28;20046;-78
2022/06/29 00:51:10;;;;;;;;;;;15.30;99.90;;;;;;5068750;28;19924;-80
2022/06/29 00:53:37;;;;;;;;;;;15.30;99.90;;;;;;5045072;28;19928;-80
2022/06/29 00:56:07;;;;;;;;;;;15.30;99.90;;;;;;5068120;28;19943;-80
2022/06/29 00:58:33;;;;;;;;;;;15.20;99.90;;;;;;5068738;28;19928;-79
2022/06/29 01:01:03;;;;;;;;;;;15.20;99.90;;;;;;5054497;28;20399;-80
2022/06/29 01:03:29;;;;;;;;;;;15.20;99.90;;;;;;5037998;28;19928;-80
2022/06/29 01:05:54;;;;;;;;;;;15.20;99.90;;;;;;5038958;28;19920;-79
2022/06/29 01:08:20;;;;;;;;;;;15.20;99.90;;;;;;5072017;28;19924;-80
2022/06/29 01:10:46;;;;;;;;;;;15.20;99.90;;;;;;5038299;28;19924;-80
2022/06/29 01:13:11;;;;;;;;;;;15.20;99.90;;;;;;5071100;28;19925;-80
2022/06/29 01:15:37;;;;;;;;;;;15.20;99.90;;;;;;5055179;28;19970;-80
2022/06/29 01:18:02;;;;;;;;;;;15.20;99.90;;;;;;5055451;28;19928;-79
2022/06/29 01:20:28;;;;;;;;;;;15.10;99.90;;;;;;5055194;28;19971;-79
2022/06/29 01:22:53;;;;;;;;;;;15.10;99.90;;;;;;5052549;28;20288;-79
2022/06/29 01:25:19;;;;;;;;;;;15.10;99.90;;;;;;5069596;28;20368;-79
2022/06/29 01:27:45;;;;;;;;;;;15.10;99.90;;;;;;5055195;28;20380;-79
2022/06/29 01:30:11;;;;;;;;;;;15.10;99.90;;;;;;5055389;28;19924;-79
2022/06/29 01:32:38;;;;;;;;;;;15.10;99.90;;;;;;5086909;28;19927;-77
2022/06/29 01:35:05;;;;;;;;;;;15.10;99.90;;;;;;5070282;28;19929;-78
2022/06/29 01:37:31;;;;;;;;;;;15.10;99.90;;;;;;5052794;28;19924;-78
2022/06/29 01:39:56;;;;;;;;;;;15.10;99.90;;;;;;5057320;28;19935;-78
2022/06/29 01:42:22;;;;;;;;;;;15.10;99.90;;;;;;5039679;28;19928;-77
2022/06/29 01:44:47;;;;;;;;;;;15.00;99.90;;;;;;5058378;28;20019;-78
2022/06/29 01:47:12;;;;;;;;;;;15.00;99.90;;;;;;5037556;28;19924;-77
2022/06/29 01:49:38;;;;;;;;;;;15.10;99.90;;;;;;5058384;28;19921;-77
2022/06/29 01:52:04;;;;;;;;;;;15.10;99.90;;;;;;5055677;28;20073;-78
2022/06/29 01:54:29;;;;;;;;;;;15.00;99.90;;;;;;5070245;28;19921;-78
2022/06/29 01:56:55;;;;;;;;;;;15.10;99.90;;;;;;5058355;28;19920;-78
2022/06/29 01:59:20;;;;;;;;;;;15.00;99.90;;;;;;5040826;28;19920;-78
2022/06/29 02:01:48;;;;;;;;;;;15.00;99.90;;;;;;5073938;28;19967;-78
2022/06/29 02:04:14;;;;;;;;;;;15.00;99.90;;;;;;5068771;28;20450;-80
2022/06/29 02:06:39;;;;;;;;;;;15.00;99.90;;;;;;5054740;28;19963;-79
2022/06/29 02:09:05;;;;;;;;;;;15.00;99.90;;;;;;5040869;28;19979;-79
2022/06/29 02:11:30;;;;;;;;;;;15.10;99.90;;;;;;5056228;28;20372;-79
2022/06/29 02:13:56;;;;;;;;;;;15.10;99.90;;;;;;5045432;28;19920;-79
2022/06/29 02:16:21;;;;;;;;;;;15.10;99.90;;;;;;5040691;28;20135;-79
2022/06/29 02:18:47;;;;;;;;;;;15.10;99.90;;;;;;5049992;28;19935;-79
2022/06/29 02:21:13;;;;;;;;;;;15.10;99.90;;;;;;5057840;28;19928;-79
2022/06/29 02:23:38;;;;;;;;;;;15.20;99.90;;;;;;5022971;28;19920;-79
2022/06/29 02:26:04;;;;;;;;;;;15.20;99.90;;;;;;5041188;28;19964;-79
2022/06/29 02:28:29;;;;;;;;;;;15.20;99.90;;;;;;5056622;28;20589;-79
2022/06/29 02:36:23;;;;;;;;;;;15.20;99.90;;;;;;5088115;28;19933;-78
2022/06/29 02:38:48;;;;;;;;;;;15.30;99.90;;;;;;5040895;28;19921;-79
2022/06/29 02:41:14;;;;;;;;;;;15.30;99.90;;;;;;5052190;28;20377;-79
2022/06/29 02:43:39;;;;;;;;;;;15.30;99.90;;;;;;5046552;28;20023;-78
2022/06/29 02:46:05;;;;;;;;;;;15.30;99.90;;;;;;5056474;28;20457;-79
2022/06/29 02:48:32;;;;;;;;;;;15.30;99.90;;;;;;5071406;28;19924;-79
2022/06/29 02:50:58;;;;;;;;;;;15.30;99.90;;;;;;5055433;28;20285;-79
2022/06/29 02:53:24;;;;;;;;;;;15.30;99.90;;;;;;5050585;28;19924;-79
2022/06/29 02:55:49;;;;;;;;;;;15.30;99.90;;;;;;5057528;28;20288;-79
2022/06/29 02:58:15;;;;;;;;;;;15.30;99.90;;;;;;5038904;28;19920;-79
2022/06/29 03:00:40;;;;;;;;;;;15.40;99.90;;;;;;5073261;28;19928;-79
2022/06/29 03:03:06;;;;;;;;;;;15.40;99.90;;;;;;5049786;28;19920;-78
2022/06/29 03:05:31;;;;;;;;;;;15.30;99.90;;;;;;5056641;28;20007;-80
2022/06/29 03:07:57;;;;;;;;;;;15.30;99.90;;;;;;5089271;28;19921;-80
2022/06/29 03:10:22;;;;;;;;;;;15.30;99.90;;;;;;5039450;28;19924;-79
2022/06/29 03:12:48;;;;;;;;;;;15.30;99.90;;;;;;5068341;28;19920;-79
2022/06/29 03:15:13;;;;;;;;;;;15.30;99.90;;;;;;5051375;28;19928;-78
2022/06/29 03:17:38;;;;;;;;;;;15.30;99.90;;;;;;5053522;28;19920;-79
2022/06/29 03:20:05;;;;;;;;;;;15.30;99.90;;;;;;5052284;28;19943;-80
2022/06/29 03:22:32;;;;;;;;;;;15.30;99.90;;;;;;5070862;28;20411;-79
2022/06/29 03:24:57;;;;;;;;;;;15.30;99.90;;;;;;5056501;28;19920;-79
2022/06/29 03:27:23;;;;;;;;;;;15.20;99.90;;;;;;5054923;28;19921;-79
2022/06/29 03:29:48;;;;;;;;;;;15.20;99.90;;;;;;5055867;28;20391;-79
2022/06/29 03:32:14;;;;;;;;;;;15.30;99.90;;;;;;5034966;28;19947;-80
2022/06/29 03:34:40;;;;;;;;;;;15.20;99.90;;;;;;5056013;28;20373;-80
2022/06/29 03:37:05;;;;;;;;;;;15.30;99.90;;;;;;5069586;28;19925;-80
2022/06/29 03:39:31;;;;;;;;;;;15.30;99.90;;;;;;5049593;28;19920;-80
2022/06/29 03:41:56;;;;;;;;;;;15.30;99.90;;;;;;5038344;28;19931;-79
2022/06/29 03:44:21;;;;;;;;;;;15.30;99.90;;;;;;5036046;28;20443;-79
2022/06/29 03:46:47;;;;;;;;;;;15.30;99.90;;;;;;5052959;28;19920;-80
2022/06/29 03:49:12;;;;;;;;;;;15.30;99.90;;;;;;5056131;28;19932;-80
2022/06/29 03:51:38;;;;;;;;;;;15.30;99.90;;;;;;5070343;28;19928;-80
2022/06/29 03:54:03;;;;;;;;;;;15.30;99.90;;;;;;5087113;28;19920;-80
2022/06/29 03:56:29;;;;;;;;;;;15.30;99.90;;;;;;5054830;28;20472;-79
2022/06/29 03:58:54;;;;;;;;;;;15.20;99.90;;;;;;5047355;28;19920;-79
2022/06/29 04:01:20;;;;;;;;;;;15.20;99.90;;;;;;5035667;28;20011;-79
2022/06/29 04:03:45;;;;;;;;;;;15.20;99.90;;;;;;5038651;28;20285;-79
2022/06/29 04:06:13;;;;;;;;;;;15.20;99.90;;;;;;5063341;28;19921;-79
2022/06/29 04:08:39;;;;;;;;;;;15.20;99.90;;;;;;5072808;28;19924;-79
2022/06/29 04:11:48;;;;;;;;;;;15.20;99.90;;;;;;5038554;28;19920;-80
2022/06/29 04:13:51;;;;;;;;;;;15.20;99.90;;;;;;5054474;28;19927;-80
2022/06/29 04:16:16;;;;;;;;;;;15.20;99.90;;;;;;5077377;28;19947;-80
2022/06/29 04:18:42;;;;;;;;;;;15.20;99.90;;;;;;5043781;28;19924;-80
2022/06/29 04:21:07;;;;;;;;;;;15.20;99.90;;;;;;5055896;28;20288;-80
2022/06/29 04:23:33;;;;;;;;;;;15.20;99.90;;;;;;5052841;28;19971;-80
2022/06/29 04:25:58;;;;;;;;;;;15.20;99.90;;;;;;5038349;28;19928;-80
2022/06/29 04:28:24;;;;;;;;;;;15.20;99.90;;;;;;5053297;28;20325;-80
2022/06/29 04:30:49;;;;;;;;;;;15.30;99.90;;;;;;5054279;28;19920;-80
2022/06/29 04:33:15;;;;;;;;;;;15.20;99.90;;;;;;5080782;28;20015;-80
2022/06/29 04:35:40;;;;;;;;;;;15.20;99.90;;;;;;5044233;28;19921;-80
2022/06/29 04:38:06;;;;;;;;;;;15.30;99.90;;;;;;5086275;28;20300;-80
2022/06/29 04:40:31;;;;;;;;;;;15.30;99.90;;;;;;5071834;28;20005;-79
2022/06/29 04:42:56;;;;;;;;;;;15.30;99.90;;;;;;5052744;28;19982;-79
2022/06/29 04:48:06;;;;;;;;;;;15.30;99.90;;;;;;5050797;28;20408;-80
2022/06/29 04:50:32;;;;;;;;;;;15.30;99.90;;;;;;5072661;28;19925;-79
2022/06/29 04:52:57;;;;;;;;;;;15.30;99.90;;;;;;5078171;28;19920;-79
2022/06/29 04:55:25;;;;;;;;;;;15.30;99.90;;;;;;5054029;28;19971;-79
2022/06/29 04:57:51;;;;;;;;;;;15.30;99.90;;;;;;5039909;28;19920;-80
2022/06/29 05:00:16;;;;;;;;;;;15.40;99.90;;;;;;5085966;28;19920;-80
2022/06/29 05:02:42;;;;;;;;;;;15.40;99.90;;;;;;5054573;28;19942;-79
2022/06/29 05:05:08;;;;;;;;;;;15.40;99.90;;;;;;5054300;28;19920;-80
2022/06/29 05:07:33;;;;;;;;;;;15.50;99.90;;;;;;5081645;28;20376;-80
2022/06/29 05:09:59;;;;;;;;;;;15.50;99.90;;;;;;5088317;28;19966;-79
2022/06/29 05:12:24;;;;;;;;;;;15.60;99.90;;;;;;5037930;28;19927;-79
2022/06/29 05:14:50;;;;;;;;;;;15.60;99.90;;;;;;5057220;28;19970;-80
2022/06/29 05:17:16;;;;;;;;;;;15.60;99.90;;;;;;5031443;28;19964;-79
2022/06/29 05:19:41;;;;;;;;;;;15.70;99.90;;;;;;5074876;28;20380;-79
2022/06/29 05:22:07;;;;;;;;;;;15.70;99.90;;;;;;5073228;28;19993;-79
2022/06/29 05:24:32;;;;;;;;;;;15.80;99.90;;;;;;5040882;28;19932;-79
2022/06/29 05:26:57;;;;;;;;;;;15.80;99.90;;;;;;5059201;28;20392;-79
2022/06/29 05:29:25;;;;;;;;;;;15.90;99.90;;;;;;5057383;28;19928;-80
2022/06/29 05:31:51;;;;;;;;;;;15.90;99.90;;;;;;5057352;28;19924;-79
2022/06/29 05:34:17;;;;;;;;;;;16.00;99.90;;;;;;5083309;28;19936;-79
2022/06/29 05:36:42;;;;;;;;;;;16.10;99.90;;;;;;5038612;28;20433;-79
2022/06/29 05:39:08;;;;;;;;;;;16.20;99.90;;;;;;5070453;28;20388;-79
2022/06/29 05:41:33;;;;;;;;;;;16.20;99.90;;;;;;5041892;28;19974;-79
2022/06/29 05:43:59;;;;;;;;;;;16.20;99.90;;;;;;5069060;28;19920;-79
2022/06/29 05:46:24;;;;;;;;;;;16.30;99.90;;;;;;5053239;28;19921;-79
2022/06/29 05:48:50;;;;;;;;;;;16.40;99.90;;;;;;5052205;28;20338;-80
2022/06/29 05:51:15;;;;;;;;;;;16.50;99.90;;;;;;5074444;28;19960;-79
2022/06/29 05:53:41;;;;;;;;;;;16.60;99.90;;;;;;5057252;28;19921;-80
2022/06/29 05:56:06;;;;;;;;;;;16.70;99.90;;;;;;5058616;28;20361;-79
2022/06/29 05:58:32;;;;;;;;;;;16.90;99.90;;;;;;5026364;28;19925;-79
2022/06/29 06:00:57;;;;;;;;;;;17.10;99.90;;;;;;5069937;28;19928;-79
2022/06/29 06:03:23;;;;;;;;;;;17.20;99.90;;;;;;5031877;28;19920;-79
2022/06/29 06:05:48;;;;;;;;;;;17.40;99.90;;;;;;5069832;28;19928;-80
2022/06/29 06:08:15;;;;;;;;;;;17.50;99.90;;;;;;5057561;28;20346;-79
2022/06/29 06:10:41;;;;;;;;;;;17.60;99.90;;;;;;5089568;28;19963;-79
2022/06/29 06:13:06;;;;;;;;;;;17.80;99.90;;;;;;5046296;28;19970;-79
2022/06/29 06:15:33;;;;;;;;;;;18.00;99.90;;;;;;5090121;28;19924;-79
2022/06/29 06:17:58;;;;;;;;;;;18.10;99.90;;;;;;5031547;28;20365;-80
2022/06/29 06:20:24;;;;;;;;;;;18.20;99.90;;;;;;5071163;28;19947;-80
2022/06/29 06:22:49;;;;;;;;;;;18.30;99.90;;;;;;5037990;28;19925;-79
2022/06/29 06:25:15;;;;;;;;;;;18.50;99.90;;;;;;5088194;28;20289;-79
2022/06/29 06:27:41;;;;;;;;;;;18.60;99.90;;;;;;5057016;28;19921;-80
2022/06/29 06:30:06;;;;;;;;;;;18.60;99.90;;;;;;5040396;28;19928;-79
2022/06/29 06:32:32;;;;;;;;;;;18.80;99.90;;;;;;5048870;28;19932;-79
2022/06/29 06:34:57;;;;;;;;;;;18.90;99.90;;;;;;5050866;28;20311;-79
2022/06/29 06:37:23;;;;;;;;;;;19.00;99.90;;;;;;5089504;28;20015;-79
2022/06/29 06:42:33;;;;;;;;;;;19.20;99.90;;;;;;5091227;28;19972;-79
2022/06/29 06:44:58;;;;;;;;;;;19.30;99.90;;;;;;5072909;28;20433;-79
2022/06/29 06:47:23;;;;;;;;;;;19.40;99.90;;;;;;5056373;28;19943;-79
2022/06/29 06:49:49;;;;;;;;;;;19.50;99.90;;;;;;5045495;28;19921;-79
2022/06/29 06:52:17;;;;;;;;;;;19.60;99.90;;;;;;5038228;28;19920;-79
2022/06/29 06:54:44;;;;;;;;;;;19.70;99.90;;;;;;5055230;28;19970;-79
2022/06/29 06:57:10;;;;;;;;;;;19.80;99.90;;;;;;5036258;28;19968;-78
2022/06/29 06:59:36;;;;;;;;;;;19.90;99.90;;;;;;5059553;28;20400;-78
2022/06/29 07:02:02;;;;;;;;;;;20.00;99.90;;;;;;5055992;28;20442;-79
2022/06/29 07:04:28;;;;;;;;;;;20.10;99.90;;;;;;5038278;28;19920;-79
2022/06/29 07:06:53;;;;;;;;;;;20.20;99.90;;;;;;5066165;28;19920;-78
2022/06/29 07:09:19;;;;;;;;;;;20.30;99.90;;;;;;5055816;28;20266;-79
2022/06/29 07:11:44;;;;;;;;;;;20.30;99.90;;;;;;5050394;28;19924;-79
2022/06/29 07:14:10;;;;;;;;;;;20.40;99.90;;;;;;5040514;28;19920;-78
2022/06/29 07:16:35;;;;;;;;;;;20.50;99.90;;;;;;5050977;28;19920;-78
2022/06/29 07:19:01;;;;;;;;;;;20.50;99.90;;;;;;5037161;28;19982;-78
2022/06/29 07:21:26;;;;;;;;;;;20.60;99.90;;;;;;5036786;28;19924;-78
2022/06/29 07:23:52;;;;;;;;;;;20.70;99.90;;;;;;5037102;28;19928;-69
2022/06/29 07:26:17;;;;;;;;;;;20.70;99.90;;;;;;5039888;28;19963;-67
2022/06/29 07:28:43;;;;;;;;;;;20.80;99.90;;;;;;5066065;28;19943;-69
2022/06/29 07:31:08;;;;;;;;;;;20.80;99.90;;;;;;5089259;28;19921;-68
2022/06/29 07:33:34;;;;;;;;;;;20.90;99.90;;;;;;5039043;28;20399;-77
2022/06/29 07:35:59;;;;;;;;;;;21.00;99.90;;;;;;5039609;28;20446;-76
2022/06/29 07:38:25;;;;;;;;;;;21.20;99.90;;;;;;5039504;28;19960;-77
2022/06/29 07:40:51;;;;;;;;;;;21.20;99.90;;;;;;5053308;28;20297;-76
2022/06/29 07:43:17;;;;;;;;;;;21.30;99.90;;;;;;5036493;28;19921;-77
2022/06/29 07:45:43;;;;;;;;;;;21.40;99.90;;;;;;5065628;28;20288;-77
2022/06/29 07:48:08;;;;;;;;;;;21.50;99.90;;;;;;5072686;28;20007;-77
2022/06/29 07:50:34;;;;;;;;;;;21.60;99.90;;;;;;5048468;28;20277;-77
2022/06/29 07:52:59;;;;;;;;;;;21.70;99.90;;;;;;5057237;28;19925;-77
2022/06/29 07:55:25;;;;;;;;;;;21.70;99.90;;;;;;5069329;28;19921;-77
2022/06/29 07:57:50;;;;;;;;;;;21.70;99.90;;;;;;5069706;28;20353;-76
2022/06/29 08:00:16;;;;;;;;;;;21.70;99.90;;;;;;5071899;28;19975;-77
2022/06/29 08:02:41;;;;;;;;;;;21.70;99.90;;;;;;5066165;28;19925;-76
2022/06/29 08:05:07;;;;;;;;;;;21.80;99.90;;;;;;5054047;28;19920;-77
2022/06/29 08:07:33;;;;;;;;;;;22.00;99.90;;;;;;5049005;28;20446;-76
2022/06/29 08:09:58;;;;;;;;;;;22.10;99.90;;;;;;5055851;28;20014;-76
2022/06/29 08:12:24;;;;;;;;;;;22.10;99.90;;;;;;5039574;28;20373;-76
2022/06/29 08:14:50;;;;;;;;;;;22.00;99.90;;;;;;5038221;28;19975;-77
2022/06/29 08:17:15;;;;;;;;;;;22.10;99.80;;;;;;5025845;28;19920;-77
2022/06/29 08:19:41;;;;;;;;;;;22.30;99.90;;;;;;5051444;28;19968;-76
2022/06/29 08:22:06;;;;;;;;;;;22.40;99.90;;;;;;5028843;28;19924;-77
2022/06/29 08:24:32;;;;;;;;;;;22.50;99.90;;;;;;5053686;28;19924;-77
2022/06/29 08:26:57;;;;;;;;;;;22.50;99.90;;;;;;5069569;28;19921;-77
2022/06/29 08:29:23;;;;;;;;;;;22.40;99.90;;;;;;5055110;28;19974;-77
2022/06/29 08:31:48;;;;;;;;;;;22.30;99.90;;;;;;5075122;28;19920;-77
2022/06/29 08:34:16;;;;;;;;;;;22.20;99.90;;;;;;5018514;28;19936;-77
2022/06/29 08:36:42;;;;;;;;;;;22.20;99.90;;;;;;5046623;28;19935;-77
2022/06/29 08:39:07;;;;;;;;;;;22.10;99.90;;;;;;5035084;28;19921;-77
2022/06/29 08:41:33;;;;;;;;;;;22.00;99.90;;;;;;5059071;28;19991;-77
2022/06/29 08:43:59;;;;;;;;;;;22.10;99.90;;;;;;5053873;28;19955;-77
2022/06/29 08:46:25;;;;;;;;;;;22.10;99.90;;;;;;5055096;28;20397;-77
2022/06/29 08:48:50;;;;;;;;;;;22.30;99.90;;;;;;5053914;28;19921;-77
2022/06/29 08:51:18;;;;;;;;;;;22.50;99.90;;;;;;5056204;28;20292;-77
2022/06/29 08:53:43;;;;;;;;;;;22.80;99.90;;;;;;5042059;28;19920;-77
2022/06/29 08:56:09;;;;;;;;;;;23.00;99.90;;;;;;5042491;28;19924;-77
2022/06/29 08:58:35;;;;;;;;;;;23.10;99.90;;;;;;5089978;28;20380;-77
2022/06/29 09:01:00;;;;;;;;;;;23.20;99.90;;;;;;5075359;28;19921;-77
2022/06/29 09:03:26;;;;;;;;;;;23.30;99.90;;;;;;5037877;28;19920;-77
2022/06/29 09:05:54;;;;;;;;;;;23.40;99.90;;;;;;5040047;28;19970;-78
2022/06/29 09:08:21;;;;;;;;;;;23.50;99.90;;;;;;5057076;28;19921;-77
2022/06/29 09:10:47;;;;;;;;;;;23.60;99.90;;;;;;5057020;28;20388;-77
2022/06/29 09:13:18;;;;;;;;;;;23.60;99.90;;;;;;5050248;28;19971;-77
2022/06/29 09:15:43;;;;;;;;;;;23.70;99.90;;;;;;5088978;28;19920;-76
2022/06/29 09:18:22;;;;;;;;;;;23.60;97.50;;;;;;5075501;28;19974;-77
2022/06/29 09:20:51;;;;;;;;;;;23.70;99.20;;;;;;5075432;28;19921;-77
2022/06/29 09:23:18;;;;;;;;;;;23.70;99.90;;;;;;5042716;28;20007;-77
2022/06/29 09:25:43;;;;;;;;;;;23.80;99.00;;;;;;5071140;28;19967;-77
2022/06/29 09:28:19;;;;;;;;;;;23.80;98.10;;;;;;5057853;28;19963;-77
2022/06/29 09:30:45;;;;;;;;;;;23.80;99.00;;;;;;5091908;28;20396;-76
2022/06/29 09:33:11;;;;;;;;;;;24.00;97.40;;;;;;5041524;28;19921;-77
2022/06/29 09:35:37;;;;;;;;;;;24.00;98.10;;;;;;5074281;28;20007;-76
2022/06/29 09:38:22;;;;;;;;;;;24.20;98.70;;;;;;5058117;28;19974;-76
2022/06/29 09:40:57;;;;;;;;;;;24.30;98.60;;;;;;5068920;28;20288;-77
2022/06/29 09:43:23;;;;;;;;;;;24.50;97.50;;;;;;5072607;28;19932;-76
2022/06/29 09:45:49;;;;;;;;;;;24.60;98.20;;;;;;5058065;28;19920;-76
2022/06/29 09:48:15;;;;;;;;;;;24.80;97.30;;;;;;5036084;28;19924;-76
2022/06/29 09:50:41;;;;;;;;;;;24.90;95.70;;;;;;5050824;28;20281;-77
2022/06/29 09:53:07;;;;;;;;;;;25.00;95.90;;;;;;5050670;28;19921;-76
2022/06/29 09:55:34;;;;;;;;;;;25.00;96.10;;;;;;5057878;28;19936;-76
2022/06/29 09:58:00;;;;;;;;;;;25.10;93.30;;;;;;5038025;28;19979;-77
2022/06/29 10:03:11;;;;;;;;;;;24.90;91.20;;;;;;5057393;28;19924;-76
2022/06/29 10:05:54;;;;;;;;;;;24.90;93.00;;;;;;5058313;28;20343;-76
2022/06/29 10:08:20;;;;;;;;;;;24.90;95.30;;;;;;5057541;28;19920;-76
2022/06/29 10:10:49;;;;;;;;;;;24.90;98.20;;;;;;5051941;28;19927;-77
2022/06/29 10:16:07;;;;;;;;;;;24.90;97.20;;;;;;5055314;28;19963;-76
2022/06/29 10:18:51;;;;;;;;;;;24.80;98.50;;;;;;5039787;28;19927;-76
2022/06/29 10:21:24;;;;;;;;;;;25.00;99.00;;;;;;5056119;28;20327;-76
2022/06/29 10:23:50;;;;;;;;;;;25.10;96.30;;;;;;5058004;28;19920;-76
2022/06/29 10:26:38;;;;;;;;;;;25.20;97.00;;;;;;5089288;28;19920;-76
2022/06/29 10:29:09;;;;;;;;;;;25.40;96.20;;;;;;5053349;28;20011;-76
2022/06/29 10:31:50;;;;;;;;;;;25.30;96.80;;;;;;5058518;28;19920;-76
2022/06/29 10:34:31;;;;;;;;;;;25.10;96.10;;;;;;5073588;28;20006;-76
2022/06/29 10:37:12;;;;;;;;;;;25.00;97.60;;;;;;5072658;28;19924;-76
2022/06/29 10:39:50;;;;;;;;;;;25.00;98.20;;;;;;5039722;28;19921;-76
2022/06/29 10:45:12;;;;;;;;;;;24.80;97.50;;;;;;5049220;28;19924;-76
2022/06/29 10:47:56;;;;;;;;;;;24.70;98.20;;;;;;5056887;28;19920;-76
2022/06/29 10:50:23;;;;;;;;;;;24.60;98.30;;;;;;5076805;28;20514;-76
2022/06/29 10:52:49;;;;;;;;;;;24.70;97.30;;;;;;5040104;28;20368;-77
2022/06/29 10:55:16;;;;;;;;;;;24.70;97.00;;;;;;5054068;28;19921;-76
2022/06/29 10:57:42;;;;;;;;;;;24.80;97.60;;;;;;5087695;28;19924;-76
2022/06/29 11:00:09;;;;;;;;;;;24.90;98.50;;;;;;5089671;28;19921;-76
2022/06/29 11:02:35;;;;;;;;;;;25.00;99.80;;;;;;5032357;28;19924;-76
2022/06/29 11:05:00;;;;;;;;;;;25.20;96.80;;;;;;5066061;28;19966;-76
2022/06/29 11:12:55;;;;;;;;;;;25.30;95.00;;;;;;5053277;28;19921;-76
2022/06/29 11:15:40;;;;;;;;;;;25.40;91.00;;;;;;5071298;28;19939;-76
2022/06/29 11:18:05;;;;;;;;;;;25.50;92.50;;;;;;5086238;28;19927;-76
2022/06/29 11:20:31;;;;;;;;;;;25.50;92.40;;;;;;5056398;28;19921;-76
2022/06/29 11:22:58;;;;;;;;;;;25.60;90.50;;;;;;5035857;28;19936;-76
2022/06/29 11:25:24;;;;;;;;;;;25.50;91.90;;;;;;5067545;28;19924;-76
2022/06/29 11:27:50;;;;;;;;;;;25.30;94.20;;;;;;5054860;28;20376;-76
2022/06/29 11:30:19;;;;;;;;;;;25.30;91.60;;;;;;5039643;28;20416;-75
2022/06/29 11:32:45;;;;;;;;;;;25.30;86.10;;;;;;5055350;28;20383;-76
2022/06/29 11:35:12;;;;;;;;;;;25.40;93.40;;;;;;5043111;28;19920;-76
2022/06/29 11:37:44;;;;;;;;;;;25.60;92.60;;;;;;5066965;28;19975;-76
2022/06/29 11:40:09;;;;;;;;;;;25.60;94.10;;;;;;5083617;28;20016;-76
2022/06/29 11:45:19;;;;;;;;;;;25.50;95.20;;;;;;5041362;28;19921;-76
2022/06/29 11:47:52;;;;;;;;;;;25.40;93.70;;;;;;5053750;28;19985;-76
2022/06/29 11:50:17;;;;;;;;;;;25.40;92.40;;;;;;5061867;28;20388;-76
2022/06/29 11:52:48;;;;;;;;;;;25.50;88.00;;;;;;5052016;28;19925;-76
2022/06/29 11:55:13;;;;;;;;;;;25.50;93.40;;;;;;5052658;28;19921;-76
2022/06/29 11:57:39;;;;;;;;;;;25.60;96.80;;;;;;5054431;28;19921;-76
2022/06/29 12:00:06;;;;;;;;;;;25.60;93.40;;;;;;5055070;28;20352;-76
2022/06/29 12:02:34;;;;;;;;;;;25.50;96.10;;;;;;5033264;28;19929;-76
2022/06/29 12:05:03;;;;;;;;;;;25.30;92.20;;;;;;5050572;28;20010;-76
2022/06/29 12:07:29;;;;;;;;;;;25.30;94.00;;;;;;5051719;28;19921;-76
2022/06/29 12:09:55;;;;;;;;;;;25.30;96.20;;;;;;5060442;28;20384;-76
2022/06/29 12:12:21;;;;;;;;;;;25.30;94.40;;;;;;5033102;28;19932;-76
2022/06/29 12:14:46;;;;;;;;;;;25.40;96.50;;;;;;5087841;28;19921;-75
2022/06/29 12:17:15;;;;;;;;;;;25.50;95.50;;;;;;5046436;28;20246;-76
2022/06/29 12:19:44;;;;;;;;;;;25.50;96.40;;;;;;5051210;28;19928;-76
2022/06/29 12:22:10;;;;;;;;;;;25.40;95.90;;;;;;5067157;28;20411;-76
2022/06/29 12:24:35;;;;;;;;;;;25.30;94.90;;;;;;5067740;28;20006;-76
2022/06/29 12:27:02;;;;;;;;;;;25.50;98.20;;;;;;5034255;28;20007;-76
2022/06/29 12:29:28;;;;;;;;;;;25.50;95.40;;;;;;5025755;28;19979;-76
2022/06/29 12:31:53;;;;;;;;;;;25.60;95.60;;;;;;5032130;28;20398;-76
2022/06/29 12:34:19;;;;;;;;;;;25.70;96.40;;;;;;5028915;28;19920;-76
2022/06/29 12:36:44;;;;;;;;;;;25.80;96.60;;;;;;5034639;28;19925;-76
2022/06/29 12:39:10;;;;;;;;;;;25.90;96.90;;;;;;5078212;28;19976;-76
2022/06/29 12:41:36;;;;;;;;;;;26.00;97.00;;;;;;5078072;28;19972;-76
2022/06/29 12:44:02;;;;;;;;;;;26.00;97.10;;;;;;5047824;28;19991;-76
2022/06/29 12:46:29;;;;;;;;;;;26.10;97.50;;;;;;5049380;28;20012;-76
2022/06/29 12:48:55;;;;;;;;;;;26.00;96.00;;;;;;5049724;28;19920;-77
2022/06/29 12:51:21;;;;;;;;;;;25.90;96.80;;;;;;5033507;28;19971;-76
2022/06/29 12:53:47;;;;;;;;;;;25.90;97.20;;;;;;5056789;28;20019;-76
2022/06/29 12:56:13;;;;;;;;;;;25.80;96.60;;;;;;5051760;28;20034;-76
2022/06/29 12:58:38;;;;;;;;;;;25.90;98.00;;;;;;5046191;28;19921;-76
2022/06/29 13:01:04;;;;;;;;;;;26.10;95.40;;;;;;5068080;28;19921;-76
2022/06/29 13:03:30;;;;;;;;;;;25.90;96.20;;;;;;5067054;28;19974;-76
2022/06/29 13:05:55;;;;;;;;;;;25.90;96.90;;;;;;5031915;28;20397;-76
2022/06/29 13:08:21;;;;;;;;;;;25.90;97.30;;;;;;5076490;28;19967;-77
2022/06/29 13:10:46;;;;;;;;;;;25.80;96.90;;;;;;5080561;28;19924;-76
2022/06/29 13:13:12;;;;;;;;;;;25.80;99.90;;;;;;5048809;28;20016;-76
2022/06/29 13:15:37;;;;;;;;;;;25.70;98.40;;;;;;5033694;28;19924;-77
2022/06/29 13:18:04;;;;;;;;;;;25.80;98.20;;;;;;5034045;28;20403;-76
2022/06/29 13:20:29;;;;;;;;;;;25.90;98.40;;;;;;5026193;28;19961;-76
2022/06/29 13:22:55;;;;;;;;;;;25.80;98.00;;;;;;5037596;28;19971;-76
2022/06/29 13:25:21;;;;;;;;;;;25.80;97.30;;;;;;5048606;28;19929;-76
2022/06/29 13:27:46;;;;;;;;;;;25.80;98.00;;;;;;5030761;28;19935;-76
2022/06/29 13:30:12;;;;;;;;;;;25.80;99.50;;;;;;5031154;28;20285;-76
2022/06/29 13:32:38;;;;;;;;;;;25.90;99.10;;;;;;5073289;28;19921;-76
2022/06/29 13:35:03;;;;;;;;;;;26.00;98.60;;;;;;5047785;28;19920;-76
2022/06/29 13:37:29;;;;;;;;;;;25.90;98.70;;;;;;5031887;28;20404;-76
2022/06/29 13:39:55;;;;;;;;;;;26.10;96.80;;;;;;5036700;28;20623;-76
2022/06/29 13:42:20;;;;;;;;;;;25.80;98.30;;;;;;5086238;28;20266;-76
2022/06/29 13:44:46;;;;;;;;;;;25.70;99.30;;;;;;5057381;28;20012;-76
2022/06/29 13:47:11;;;;;;;;;;;25.70;98.00;;;;;;5038579;28;19936;-76
2022/06/29 13:49:37;;;;;;;;;;;25.60;98.80;;;;;;5053882;28;20393;-76
2022/06/29 13:52:03;;;;;;;;;;;25.50;99.00;;;;;;5036622;28;19924;-76
2022/06/29 13:54:29;;;;;;;;;;;25.60;97.80;;;;;;5080953;28;20010;-75
2022/06/29 13:56:55;;;;;;;;;;;25.50;97.40;;;;;;5038148;28;19971;-76
2022/06/29 13:59:20;;;;;;;;;;;25.40;99.10;;;;;;5054565;28;19929;-76
2022/06/29 14:01:46;;;;;;;;;;;25.40;98.80;;;;;;5035366;28;19925;-69
2022/06/29 14:04:11;;;;;;;;;;;25.30;98.20;;;;;;5053920;28;19927;-69
2022/06/29 14:06:37;;;;;;;;;;;25.30;98.20;;;;;;5054214;28;20008;-69
2022/06/29 14:09:03;;;;;;;;;;;25.20;99.00;;;;;;5071279;28;20033;-69
2022/06/29 14:13:06;;;;;;;7.60;4.45;;;25.20;99.60;;;;;;5073619;28;20929;-67
2022/06/29 14:15:31;;;;;;;14.02;4.93;;;25.30;98.40;;;;;;5085302;28;20126;-68
2022/06/29 14:17:57;;;;;;;5.95;3.97;;;25.30;99.90;;;;;;5050566;28;20029;-68
2022/06/29 14:20:23;;;;;;;8.07;4.63;;;25.40;98.80;;;;;;5067848;28;20049;-67
2022/06/29 14:22:48;;;;;;;7.78;4.50;;;25.40;96.80;;;;;;5050569;28;20041;-67
2022/06/29 14:25:14;;;;;;;7.53;4.18;;;25.40;97.20;;;;;;5068565;28;20090;-67
2022/06/29 14:27:40;;;;;;;7.80;4.50;;;25.40;98.50;;;;;;5051656;28;20040;-67
2022/06/29 14:30:06;;;;;;;7.82;4.70;;;25.40;99.60;;;;;;5068364;28;20064;-67
2022/06/29 14:32:31;;;;;;;8.50;4.50;;;25.40;99.60;;;;;;5066242;28;20048;-67
2022/06/29 14:34:57;;;;;;;6.53;3.97;;;25.30;99.50;;;;;;5068358;28;20508;-67
2022/06/29 14:37:23;;;;;;;6.47;4.28;;;25.30;99.90;;;;;;5051011;28;20090;-67